Time;durP1;ratioP1;P1;durP2;ratioP2;P2;SDS_P1;SDS_P2;PMS_P1;PMS_P2;Temp;Humidity;BMP_temperature;BMP_pressure;BME280_temperature;BME280_humidity;BME280_pressure;Samples;Min_cycle;Max_cycle;Signal;HPM_P1;HPM_P2
2021/06/02 00:01:17;;;;;;;2.85;2.60;;;22.50;47.30;;;;;;5095895;28;20182;-62
2021/06/02 00:03:43;;;;;;;2.92;2.50;;;22.50;46.50;;;;;;5061174;28;20195;-61
2021/06/02 00:06:09;;;;;;;3.42;2.60;;;22.40;46.60;;;;;;5095577;28;20173;-62
2021/06/02 00:08:35;;;;;;;3.45;3.10;;;22.50;46.70;;;;;;5095326;28;20639;-62
2021/06/02 00:11:00;;;;;;;3.22;2.85;;;22.40;46.60;;;;;;5077713;28;20257;-61
2021/06/02 00:13:26;;;;;;;2.97;2.78;;;22.40;46.60;;;;;;5077361;28;20182;-62
2021/06/02 00:15:51;;;;;;;3.15;2.85;;;22.40;46.60;;;;;;5077205;28;20709;-62
2021/06/02 00:18:17;;;;;;;2.85;2.65;;;22.40;46.70;;;;;;5095900;28;20181;-62
2021/06/02 00:20:43;;;;;;;3.90;3.35;;;22.40;46.80;;;;;;5076770;28;20216;-62
2021/06/02 00:23:08;;;;;;;4.70;3.22;;;22.40;46.70;;;;;;5095310;28;20174;-61
2021/06/02 00:25:34;;;;;;;2.97;2.67;;;22.40;46.80;;;;;;5077495;28;20178;-61
2021/06/02 00:27:59;;;;;;;3.42;3.13;;;22.40;46.90;;;;;;5095092;28;20166;-61
2021/06/02 00:30:24;;;;;;;3.95;3.08;;;22.40;46.90;;;;;;5077413;28;20173;-62
2021/06/02 00:32:50;;;;;;;4.35;3.17;;;22.40;46.90;;;;;;5095101;28;20544;-61
2021/06/02 00:35:17;;;;;;;3.67;3.38;;;22.40;46.90;;;;;;5094710;28;20255;-62
2021/06/02 00:37:43;;;;;;;3.10;2.83;;;22.40;46.90;;;;;;5095127;28;20193;-62
2021/06/02 00:40:09;;;;;;;3.00;2.80;;;22.40;47.00;;;;;;5077349;28;20656;-61
2021/06/02 00:42:35;;;;;;;4.32;3.92;;;22.40;47.10;;;;;;5059798;28;20177;-61
2021/06/02 00:45:00;;;;;;;2.85;2.65;;;22.30;47.00;;;;;;5095478;28;20538;-61
2021/06/02 00:47:26;;;;;;;3.25;2.92;;;22.40;47.10;;;;;;5094772;28;20177;-61
2021/06/02 00:49:51;;;;;;;3.38;3.08;;;22.40;47.10;;;;;;5094758;28;20515;-62
2021/06/02 00:52:17;;;;;;;3.60;3.30;;;22.30;47.10;;;;;;5095146;28;20169;-62
2021/06/02 00:54:43;;;;;;;3.55;3.25;;;22.30;47.20;;;;;;5094433;28;20202;-62
2021/06/02 00:57:16;;;;;;;3.42;3.13;;;22.30;47.20;;;;;;5077075;28;20184;-61
2021/06/02 00:59:43;;;;;;;3.08;2.80;;;22.30;47.30;;;;;;5094997;28;20178;-62
2021/06/02 01:02:19;;;;;;;3.25;3.05;;;22.30;47.30;;;;;;5094574;28;20170;-61
2021/06/02 01:04:45;;;;;;;3.92;3.60;;;22.30;47.40;;;;;;5094292;28;20174;-62
2021/06/02 01:07:11;;;;;;;3.60;3.30;;;22.30;47.40;;;;;;5077047;28;20188;-62
2021/06/02 01:09:44;;;;;;;3.72;3.28;;;22.30;47.40;;;;;;5094292;28;20257;-62
2021/06/02 01:12:13;;;;;;;4.45;3.92;;;22.30;47.50;;;;;;5077081;28;20177;-62
2021/06/02 01:14:38;;;;;;;3.50;3.20;;;22.30;47.60;;;;;;5094452;28;20219;-62
2021/06/02 01:17:04;;;;;;;3.80;3.50;;;22.30;47.60;;;;;;5076220;28;20162;-62
2021/06/02 01:19:29;;;;;;;3.90;3.55;;;22.30;47.70;;;;;;5076343;28;20173;-62
2021/06/02 01:22:01;;;;;;;3.83;3.53;;;22.30;48.30;;;;;;5094092;28;20214;-62
2021/06/02 01:24:27;;;;;;;3.70;3.35;;;22.30;47.70;;;;;;5093898;28;20170;-62
2021/06/02 01:26:55;;;;;;;4.00;3.60;;;22.30;47.80;;;;;;5094404;28;20206;-62
2021/06/02 01:29:21;;;;;;;4.07;3.75;;;22.30;47.80;;;;;;5094553;28;20231;-61
2021/06/02 01:32:02;;;;;;;4.45;4.05;;;22.20;47.80;;;;;;5093428;28;20177;-61
2021/06/02 01:35:01;;;;;;;4.82;4.25;;;22.20;47.80;;;;;;5076553;28;20243;-61
2021/06/02 01:37:47;;;;;;;3.97;3.67;;;22.20;47.90;;;;;;5093964;28;20178;-62
2021/06/02 01:40:50;;;;;;;4.60;4.20;;;22.20;47.90;;;;;;5077820;28;20266;-61
2021/06/02 01:43:22;;;;;;;4.20;3.90;;;22.20;48.10;;;;;;5094426;28;20174;-62
2021/06/02 01:46:18;;;;;;;4.53;4.13;;;22.20;48.10;;;;;;5074983;28;20540;-61
2021/06/02 01:48:55;;;;;;;4.82;4.43;;;22.20;48.20;;;;;;5061329;28;20173;-61
2021/06/02 01:51:34;;;;;;;4.50;3.90;;;22.20;48.10;;;;;;5093772;28;20169;-62
2021/06/02 01:54:24;;;;;;;6.03;4.00;;;22.20;48.20;;;;;;5075848;28;20168;-62
2021/06/02 01:57:24;;;;;;;4.13;3.83;;;22.20;48.30;;;;;;5093628;28;20185;-62
2021/06/02 02:00:17;;;;;;;4.35;4.03;;;22.20;48.30;;;;;;5093030;28;20188;-62
2021/06/02 02:02:48;;;;;;;4.03;3.72;;;22.20;48.40;;;;;;5093560;28;20174;-62
2021/06/02 02:05:16;;;;;;;5.15;4.70;;;22.20;48.30;;;;;;5093125;28;20170;-62
2021/06/02 02:07:44;;;;;;;4.22;3.75;;;22.20;48.40;;;;;;5075444;28;20178;-62
2021/06/02 02:10:35;;;;;;;5.22;4.22;;;22.20;48.40;;;;;;5093847;28;20174;-61
2021/06/02 02:13:32;;;;;;;5.93;4.45;;;22.20;48.50;;;;;;5093059;28;20169;-61
2021/06/02 02:16:26;;;;;;;5.10;4.30;;;22.10;48.50;;;;;;5072815;28;20214;-61
2021/06/02 02:19:13;;;;;;;4.65;4.25;;;22.20;48.70;;;;;;5092669;28;20223;-62
2021/06/02 02:21:58;;;;;;;4.78;4.30;;;22.10;48.60;;;;;;5092718;28;20335;-62
2021/06/02 02:24:50;;;;;;;6.03;4.40;;;22.20;48.70;;;;;;5093489;28;20528;-61
2021/06/02 02:27:48;;;;;;;5.38;4.88;;;22.20;48.70;;;;;;5074932;28;20173;-61
2021/06/02 02:31:01;;;;;;;4.57;4.18;;;22.10;48.70;;;;;;5058720;28;20185;-61
2021/06/02 02:33:42;;;;;;;5.30;4.78;;;22.10;48.80;;;;;;4991301;28;20196;-61
2021/06/02 02:36:11;;;;;;;5.10;4.60;;;22.10;48.80;;;;;;5074897;28;20221;-61
2021/06/02 02:38:57;;;;;;;5.57;5.10;;;22.10;48.70;;;;;;5075112;28;20177;-61
2021/06/02 02:41:35;;;;;;;5.32;4.82;;;22.10;48.80;;;;;;5092952;28;20186;-62
2021/06/02 02:44:38;;;;;;;4.88;4.40;;;22.10;48.80;;;;;;5093094;28;20166;-61
2021/06/02 02:47:15;;;;;;;4.68;4.28;;;22.10;48.80;;;;;;5092361;28;20169;-61
2021/06/02 02:49:46;;;;;;;4.88;4.47;;;22.10;48.90;;;;;;5092789;28;20265;-61
2021/06/02 02:52:50;;;;;;;5.20;4.80;;;22.10;48.90;;;;;;5093136;28;20174;-61
2021/06/02 02:55:33;;;;;;;6.55;5.30;;;22.10;48.80;;;;;;5074435;28;20220;-61
2021/06/02 02:58:28;;;;;;;5.20;4.80;;;22.10;48.90;;;;;;5092832;28;20500;-61
2021/06/02 03:01:08;;;;;;;5.40;4.90;;;22.10;49.00;;;;;;5074061;28;20178;-61
2021/06/02 03:04:08;;;;;;;5.65;4.72;;;22.10;49.00;;;;;;5074575;28;20513;-61
2021/06/02 03:06:46;;;;;;;5.05;4.60;;;22.10;49.00;;;;;;5077609;28;20272;-61
2021/06/02 03:09:31;;;;;;;6.85;4.85;;;22.10;49.00;;;;;;5074307;28;20177;-62
2021/06/02 03:12:18;;;;;;;6.57;4.70;;;22.10;49.00;;;;;;5092530;28;20181;-61
2021/06/02 03:14:54;;;;;;;4.90;4.50;;;22.10;49.00;;;;;;5074948;28;20254;-61
2021/06/02 03:17:27;;;;;;;5.60;5.10;;;22.00;49.00;;;;;;5092756;28;20264;-62
2021/06/02 03:20:04;;;;;;;5.25;4.60;;;22.00;49.10;;;;;;5074352;28;20177;-62
2021/06/02 03:22:51;;;;;;;4.95;4.55;;;22.00;49.10;;;;;;5073801;28;20225;-62
2021/06/02 03:25:45;;;;;;;5.15;4.65;;;22.00;49.10;;;;;;5092650;28;20365;-61
2021/06/02 03:28:49;;;;;;;5.35;4.85;;;22.00;49.10;;;;;;5081346;28;20189;-61
2021/06/02 03:31:45;;;;;;;5.60;5.10;;;22.00;49.20;;;;;;5080834;28;20181;-61
2021/06/02 03:34:21;;;;;;;5.93;5.18;;;22.00;49.20;;;;;;5096768;28;20620;-62
2021/06/02 03:37:15;;;;;;;5.63;5.00;;;22.00;49.30;;;;;;5095662;28;20635;-61
2021/06/02 03:39:50;;;;;;;5.35;4.90;;;22.00;49.20;;;;;;5080881;28;20493;-62
2021/06/02 03:42:27;;;;;;;6.68;5.20;;;22.00;49.30;;;;;;5078649;28;20185;-62
2021/06/02 03:45:16;;;;;;;5.68;5.07;;;22.00;49.30;;;;;;5077540;28;20252;-61
2021/06/02 03:48:03;;;;;;;5.55;4.97;;;22.00;49.40;;;;;;5078039;28;20564;-62
2021/06/02 03:50:29;;;;;;;5.70;5.20;;;22.00;49.40;;;;;;5095943;28;20311;-62
2021/06/02 03:53:06;;;;;;;5.85;5.30;;;22.00;49.50;;;;;;5061260;28;20174;-62
2021/06/02 03:55:36;;;;;;;5.95;5.20;;;22.00;49.50;;;;;;5061918;28;20248;-62
2021/06/02 03:58:27;;;;;;;5.68;5.18;;;22.00;49.50;;;;;;5077382;28;20166;-62
2021/06/02 04:01:10;;;;;;;6.70;5.68;;;22.00;49.60;;;;;;5077717;28;20280;-61
2021/06/02 04:04:01;;;;;;;5.82;5.25;;;22.00;49.60;;;;;;5077838;28;20174;-62
2021/06/02 04:06:30;;;;;;;7.45;5.38;;;21.90;49.60;;;;;;5079534;28;20558;-62
2021/06/02 04:09:13;;;;;;;5.95;5.35;;;22.00;49.70;;;;;;5078076;28;20173;-62
2021/06/02 04:11:55;;;;;;;5.75;5.13;;;22.00;49.80;;;;;;5095135;28;20703;-62
2021/06/02 04:14:29;;;;;;;6.20;5.70;;;22.00;49.70;;;;;;5095604;28;20178;-62
2021/06/02 04:16:55;;;;;;;6.30;5.80;;;21.90;49.70;;;;;;5095846;28;20230;-62
2021/06/02 04:19:20;;;;;;;7.10;5.50;;;21.90;49.70;;;;;;5060723;28;20166;-62
2021/06/02 04:21:46;;;;;;;6.03;5.38;;;21.90;49.70;;;;;;5077132;28;20235;-61
2021/06/02 04:24:13;;;;;;;6.72;6.10;;;21.90;49.80;;;;;;5061295;28;20169;-61
2021/06/02 04:26:38;;;;;;;6.22;5.63;;;21.90;49.80;;;;;;5094835;28;20184;-61
2021/06/02 04:29:10;;;;;;;5.43;4.93;;;22.00;49.90;;;;;;5095284;28;20545;-61
2021/06/02 04:31:36;;;;;;;5.95;5.45;;;22.00;49.80;;;;;;5095348;28;20201;-61
2021/06/02 04:34:02;;;;;;;8.10;5.82;;;22.00;49.80;;;;;;5094854;28;20181;-61
2021/06/02 04:36:28;;;;;;;6.10;5.60;;;22.00;49.80;;;;;;5095440;28;20214;-61
2021/06/02 04:38:54;;;;;;;7.40;5.72;;;22.00;49.80;;;;;;5094459;28;20180;-61
2021/06/02 04:41:24;;;;;;;5.80;5.20;;;22.00;49.90;;;;;;5094679;28;20182;-62
2021/06/02 04:43:52;;;;;;;6.20;5.70;;;22.00;49.80;;;;;;5095040;28;20189;-62
2021/06/02 04:46:19;;;;;;;7.22;6.53;;;22.00;49.80;;;;;;5095437;28;20253;-61
2021/06/02 04:48:45;;;;;;;5.88;5.38;;;22.00;49.80;;;;;;5094547;28;20260;-62
2021/06/02 04:51:35;;;;;;;6.10;5.50;;;22.00;50.50;;;;;;5095221;28;20261;-62
2021/06/02 04:54:22;;;;;;;6.15;5.65;;;22.00;49.90;;;;;;5094514;28;20162;-62
2021/06/02 04:56:56;;;;;;;6.30;5.70;;;22.00;50.00;;;;;;5094638;28;20639;-62
2021/06/02 04:59:48;;;;;;;6.35;5.85;;;22.00;49.90;;;;;;5095200;28;20589;-61
2021/06/02 05:02:19;;;;;;;6.93;6.15;;;22.00;50.00;;;;;;5076422;28;20170;-61
2021/06/02 05:04:57;;;;;;;6.32;5.70;;;22.00;50.00;;;;;;5094703;28;20264;-62
2021/06/02 05:07:52;;;;;;;5.80;5.30;;;22.00;50.10;;;;;;5095050;28;20235;-62
2021/06/02 05:10:42;;;;;;;6.22;5.63;;;22.00;50.00;;;;;;5094546;28;20534;-61
2021/06/02 05:13:33;;;;;;;6.72;5.97;;;22.00;50.10;;;;;;5094551;28;20498;-62
2021/06/02 05:16:17;;;;;;;6.05;5.45;;;22.00;50.00;;;;;;5075756;28;20729;-62
2021/06/02 05:19:03;;;;;;;6.03;5.43;;;22.00;50.10;;;;;;5094372;28;20205;-61
2021/06/02 05:22:06;;;;;;;5.35;4.95;;;22.00;50.10;;;;;;5094461;28;20239;-62
2021/06/02 05:24:41;;;;;;;5.85;5.35;;;22.00;50.10;;;;;;5079117;28;20189;-62
2021/06/02 05:27:44;;;;;;;6.10;5.60;;;22.00;50.10;;;;;;5076367;28;20185;-61
2021/06/02 05:30:40;;;;;;;6.53;5.53;;;22.00;50.20;;;;;;5093642;28;20636;-61
2021/06/02 05:33:15;;;;;;;6.72;5.97;;;22.00;50.20;;;;;;5094305;28;20266;-62
2021/06/02 05:35:42;;;;;;;6.03;5.50;;;22.00;50.10;;;;;;5093471;28;20258;-62
2021/06/02 05:39:00;;;;;;;6.00;5.40;;;22.00;50.20;;;;;;5076062;28;20173;-61
2021/06/02 05:41:52;;;;;;;7.18;5.13;;;22.00;50.10;;;;;;5054652;28;20182;-62
2021/06/02 05:44:55;;;;;;;6.30;5.70;;;22.00;50.20;;;;;;5093317;28;20632;-62
2021/06/02 05:47:49;;;;;;;5.90;5.40;;;22.00;50.20;;;;;;5062518;28;20181;-61
2021/06/02 05:50:36;;;;;;;5.47;4.97;;;22.00;50.10;;;;;;5092432;28;20261;-62
2021/06/02 05:53:27;;;;;;;6.18;5.57;;;22.00;50.10;;;;;;5093855;28;20265;-62
2021/06/02 05:56:35;;;;;;;5.82;5.32;;;22.00;50.10;;;;;;5075578;28;20213;-61
2021/06/02 05:59:00;;;;;;;5.95;5.45;;;22.00;50.10;;;;;;5075313;28;20181;-61
2021/06/02 06:01:29;;;;;;;6.50;5.72;;;22.10;50.10;;;;;;5093794;28;20261;-62
2021/06/02 06:04:22;;;;;;;5.93;5.22;;;22.00;50.10;;;;;;5092922;28;20182;-62
2021/06/02 06:07:22;;;;;;;5.93;5.35;;;22.10;50.10;;;;;;5093432;28;20177;-62
2021/06/02 06:10:25;;;;;;;5.95;5.35;;;22.10;50.70;;;;;;5071677;28;20186;-62
2021/06/02 06:13:18;;;;;;;6.00;5.50;;;22.10;50.10;;;;;;5130477;27;20602;-62
2021/06/02 06:16:05;;;;;;;5.32;4.90;;;22.00;50.00;;;;;;5129575;27;20652;-62
2021/06/02 06:18:34;;;;;;;5.85;5.18;;;22.10;50.00;;;;;;5129291;28;20180;-62
2021/06/02 06:21:02;;;;;;;5.43;4.93;;;22.10;50.10;;;;;;5130623;28;20646;-62
2021/06/02 06:23:41;;;;;;;4.97;4.57;;;22.10;50.10;;;;;;5130845;28;20622;-62
2021/06/02 06:26:36;;;;;;;5.68;5.20;;;22.10;50.00;;;;;;5129199;28;20195;-62
2021/06/02 06:29:39;;;;;;;5.57;5.18;;;22.10;50.00;;;;;;5129692;27;20179;-62
2021/06/02 06:32:05;;;;;;;5.95;5.40;;;22.10;50.00;;;;;;5129013;28;20211;-62
2021/06/02 06:34:33;;;;;;;5.80;5.32;;;22.10;50.00;;;;;;5129352;28;20188;-62
2021/06/02 06:36:58;;;;;;;5.50;5.07;;;22.10;50.00;;;;;;5129501;28;20678;-62
2021/06/02 06:39:56;;;;;;;6.22;5.07;;;22.10;50.00;;;;;;5129246;28;20255;-62
2021/06/02 06:42:23;;;;;;;4.90;4.50;;;22.20;50.00;;;;;;5129260;28;20172;-62
2021/06/02 06:44:50;;;;;;;4.97;4.53;;;22.20;50.10;;;;;;5129176;28;20176;-62
2021/06/02 06:47:16;;;;;;;4.88;4.50;;;22.20;50.10;;;;;;5128904;28;20184;-62
2021/06/02 06:49:44;;;;;;;5.38;4.78;;;22.20;50.30;;;;;;5129268;28;20168;-62
2021/06/02 06:52:09;;;;;;;5.97;5.32;;;22.10;50.30;;;;;;5129220;28;20602;-63
2021/06/02 06:54:35;;;;;;;5.43;5.00;;;22.20;50.50;;;;;;5128208;28;20161;-62
2021/06/02 06:57:00;;;;;;;4.93;4.53;;;22.20;50.70;;;;;;5128989;28;20302;-62
2021/06/02 06:59:26;;;;;;;5.10;4.70;;;22.20;50.50;;;;;;5129423;28;20267;-62
2021/06/02 07:01:51;;;;;;;5.45;4.95;;;22.20;50.40;;;;;;5129260;28;20164;-63
2021/06/02 07:04:17;;;;;;;5.60;5.20;;;22.20;50.30;;;;;;5128985;28;20172;-62
2021/06/02 07:06:43;;;;;;;4.95;4.55;;;22.20;50.30;;;;;;5128653;28;20688;-62
2021/06/02 07:09:08;;;;;;;5.88;5.03;;;22.20;50.30;;;;;;5129315;28;20170;-63
2021/06/02 07:11:41;;;;;;;5.80;5.20;;;22.20;50.30;;;;;;5129232;28;20232;-62
2021/06/02 07:14:11;;;;;;;5.35;4.95;;;22.20;50.40;;;;;;5129644;28;20251;-62
2021/06/02 07:16:38;;;;;;;5.38;4.88;;;22.20;50.30;;;;;;5129668;27;20538;-62
2021/06/02 07:19:08;;;;;;;5.20;4.63;;;22.20;50.30;;;;;;5130049;27;20250;-63
2021/06/02 07:21:34;;;;;;;5.38;4.88;;;22.30;50.40;;;;;;5129151;27;20175;-62
2021/06/02 07:24:00;;;;;;;5.43;4.93;;;22.30;50.40;;;;;;5116468;28;20177;-62
2021/06/02 07:26:25;;;;;;;4.78;4.38;;;22.30;50.40;;;;;;5116271;28;20192;-63
2021/06/02 07:28:51;;;;;;;5.10;4.70;;;22.30;50.50;;;;;;5115268;28;20281;-62
2021/06/02 07:31:16;;;;;;;4.93;4.53;;;22.30;50.70;;;;;;5114494;28;20193;-62
2021/06/02 07:33:44;;;;;;;4.80;4.40;;;22.40;50.70;;;;;;5115577;28;20255;-63
2021/06/02 07:36:10;;;;;;;6.00;4.85;;;22.40;50.70;;;;;;5115357;28;20631;-63
2021/06/02 07:38:35;;;;;;;5.63;4.60;;;22.40;50.70;;;;;;5114281;28;20638;-63
2021/06/02 07:41:01;;;;;;;6.97;4.90;;;22.40;50.80;;;;;;5115907;28;20193;-63
2021/06/02 07:43:26;;;;;;;6.13;4.40;;;22.40;50.80;;;;;;5115028;28;20260;-63
2021/06/02 07:45:52;;;;;;;4.50;4.07;;;22.40;50.80;;;;;;5115162;28;20250;-63
2021/06/02 07:48:17;;;;;;;4.85;4.45;;;22.40;50.70;;;;;;5115674;28;20195;-63
2021/06/02 07:50:43;;;;;;;6.15;4.88;;;22.40;50.80;;;;;;5114690;28;20622;-63
2021/06/02 07:53:08;;;;;;;4.95;4.55;;;22.40;50.90;;;;;;5115531;28;20180;-63
2021/06/02 07:55:34;;;;;;;5.20;4.70;;;22.40;50.80;;;;;;5115533;28;20244;-63
2021/06/02 07:57:59;;;;;;;5.00;4.53;;;22.40;50.80;;;;;;5114662;28;20264;-63
2021/06/02 08:00:25;;;;;;;5.55;5.05;;;22.40;50.80;;;;;;5115540;28;20177;-63
2021/06/02 08:02:50;;;;;;;4.80;4.40;;;22.40;50.80;;;;;;5115224;28;20176;-63
2021/06/02 08:05:16;;;;;;;5.07;4.40;;;22.40;50.80;;;;;;5114745;28;20176;-63
2021/06/02 08:07:42;;;;;;;4.70;4.25;;;22.40;50.80;;;;;;5115194;28;20172;-63
2021/06/02 08:10:08;;;;;;;5.00;4.57;;;22.50;50.90;;;;;;5114014;28;20202;-63
2021/06/02 08:12:34;;;;;;;4.57;4.18;;;22.50;50.80;;;;;;5113946;28;20228;-63
2021/06/02 08:14:59;;;;;;;5.00;4.60;;;22.50;50.80;;;;;;5115478;28;20177;-63
2021/06/02 08:17:25;;;;;;;4.78;4.38;;;22.50;50.80;;;;;;5114699;28;20246;-64
2021/06/02 08:19:50;;;;;;;4.63;4.13;;;22.50;50.80;;;;;;5114440;28;20173;-64
2021/06/02 08:22:16;;;;;;;5.32;4.82;;;22.50;51.00;;;;;;5115111;28;20631;-63
2021/06/02 08:24:41;;;;;;;5.40;4.85;;;22.50;50.90;;;;;;5114322;28;20269;-63
2021/06/02 08:27:10;;;;;;;4.88;4.30;;;22.50;50.90;;;;;;5118918;27;20259;-62
2021/06/02 08:29:35;;;;;;;5.80;4.68;;;22.50;51.00;;;;;;5126452;27;20696;-63
2021/06/02 08:32:01;;;;;;;5.32;4.80;;;22.60;51.00;;;;;;5119904;27;20209;-62
2021/06/02 08:34:26;;;;;;;4.90;4.32;;;22.60;51.00;;;;;;5113548;28;20223;-63
2021/06/02 08:36:52;;;;;;;5.65;4.90;;;22.60;51.00;;;;;;5119027;27;20219;-63
2021/06/02 08:39:18;;;;;;;5.13;4.63;;;22.60;51.10;;;;;;5113736;28;20204;-63
2021/06/02 08:41:43;;;;;;;6.05;4.47;;;22.60;51.10;;;;;;5114449;28;20532;-63
2021/06/02 08:44:09;;;;;;;6.05;4.43;;;22.60;51.10;;;;;;5122342;27;20172;-63
2021/06/02 08:46:38;;;;;;;5.28;4.68;;;22.60;51.00;;;;;;5132875;27;20164;-63
2021/06/02 08:49:03;;;;;;;4.82;4.32;;;22.60;51.00;;;;;;5135149;27;20168;-63
2021/06/02 08:51:29;;;;;;;5.45;4.68;;;22.60;51.10;;;;;;5135025;27;20287;-63
2021/06/02 08:53:56;;;;;;;4.68;4.28;;;22.70;51.10;;;;;;5133865;27;20537;-63
2021/06/02 08:56:21;;;;;;;6.10;4.43;;;22.70;51.10;;;;;;5135184;27;20161;-63
2021/06/02 08:58:47;;;;;;;5.43;4.93;;;22.70;51.10;;;;;;5116265;27;20177;-63
2021/06/02 09:01:14;;;;;;;5.20;4.70;;;22.70;51.10;;;;;;5125356;27;20631;-62
2021/06/02 09:03:39;;;;;;;5.15;4.45;;;22.70;51.10;;;;;;5113871;28;20180;-63
2021/06/02 09:06:08;;;;;;;4.97;4.57;;;22.70;51.10;;;;;;5114015;28;20177;-64
2021/06/02 09:08:33;;;;;;;4.45;4.05;;;22.70;51.10;;;;;;5112168;28;20197;-63
2021/06/02 09:11:17;;;;;;;6.32;4.57;;;22.70;51.10;;;;;;5113953;28;20277;-64
2021/06/02 09:13:43;;;;;;;4.60;4.20;;;22.80;51.10;;;;;;5113024;28;20173;-63
2021/06/02 09:16:23;;;;;;;4.63;4.22;;;22.80;51.10;;;;;;5113689;28;20536;-63
2021/06/02 09:19:03;;;;;;;5.25;4.75;;;22.80;51.10;;;;;;5113412;28;20172;-63
2021/06/02 09:21:31;;;;;;;7.28;4.43;;;22.80;51.10;;;;;;5113200;28;20188;-63
2021/06/02 09:23:57;;;;;;;5.85;4.68;;;22.80;51.10;;;;;;5114039;28;20252;-63
2021/06/02 09:26:24;;;;;;;4.15;3.72;;;22.90;51.10;;;;;;5113818;28;20200;-63
2021/06/02 09:28:58;;;;;;;4.50;4.10;;;22.80;51.10;;;;;;5112695;28;20181;-63
2021/06/02 09:31:34;;;;;;;4.07;3.67;;;22.90;51.10;;;;;;5113393;28;20209;-63
2021/06/02 09:34:04;;;;;;;4.72;4.20;;;22.90;51.10;;;;;;5114029;28;20632;-63
2021/06/02 09:36:34;;;;;;;4.53;4.22;;;22.90;51.00;;;;;;5131455;27;20188;-63
2021/06/02 09:39:02;;;;;;;4.70;4.25;;;22.90;51.00;;;;;;5134085;27;20239;-63
2021/06/02 09:41:28;;;;;;;4.57;4.18;;;23.00;51.00;;;;;;5133949;27;20188;-62
2021/06/02 09:43:54;;;;;;;4.90;4.50;;;23.00;50.90;;;;;;5132862;27;20169;-63
2021/06/02 09:46:19;;;;;;;4.75;4.45;;;23.00;51.00;;;;;;5115688;27;20263;-63
2021/06/02 09:48:48;;;;;;;5.93;4.07;;;23.00;50.90;;;;;;5133532;27;20256;-62
2021/06/02 09:51:32;;;;;;;4.65;4.25;;;23.00;50.90;;;;;;5133665;27;20204;-62
2021/06/02 09:54:02;;;;;;;4.32;4.00;;;23.00;50.80;;;;;;5133996;27;20309;-63
2021/06/02 09:56:37;;;;;;;4.43;3.97;;;23.10;50.80;;;;;;5134115;27;20188;-62
2021/06/02 09:59:04;;;;;;;4.15;3.85;;;23.10;50.80;;;;;;5138688;27;20164;-62
2021/06/02 10:01:52;;;;;;;4.78;4.28;;;23.10;50.80;;;;;;5133927;27;20255;-61
2021/06/02 10:04:18;;;;;;;4.72;4.30;;;23.10;50.90;;;;;;5133196;27;20179;-62
2021/06/02 10:06:44;;;;;;;6.57;4.25;;;23.10;51.00;;;;;;5133555;27;20289;-62
2021/06/02 10:09:09;;;;;;;4.85;4.45;;;23.20;51.10;;;;;;5132925;27;20267;-62
2021/06/02 10:11:35;;;;;;;4.43;4.03;;;23.20;51.20;;;;;;5132582;28;20577;-62
2021/06/02 10:14:04;;;;;;;5.55;4.20;;;23.20;51.10;;;;;;5132532;28;20528;-62
2021/06/02 10:16:40;;;;;;;4.80;4.10;;;23.20;51.10;;;;;;5115871;28;20532;-63
2021/06/02 10:19:06;;;;;;;4.63;4.20;;;23.20;51.10;;;;;;5132761;27;20176;-63
2021/06/02 10:21:48;;;;;;;7.43;4.90;;;23.30;51.10;;;;;;5133536;28;20172;-62
2021/06/02 10:24:14;;;;;;;5.82;4.30;;;23.30;51.20;;;;;;5133259;27;20225;-62
2021/06/02 10:26:40;;;;;;;4.03;3.72;;;23.30;51.20;;;;;;5131905;28;20176;-61
2021/06/02 10:29:06;;;;;;;4.90;4.03;;;23.30;51.80;;;;;;5133478;28;20180;-61
2021/06/02 10:31:32;;;;;;;4.47;4.07;;;23.30;51.10;;;;;;5132642;27;20200;-62
2021/06/02 10:33:57;;;;;;;4.53;4.05;;;23.30;51.20;;;;;;5133259;27;20172;-62
2021/06/02 10:36:23;;;;;;;6.57;3.97;;;23.30;51.10;;;;;;5116060;28;20183;-63
2021/06/02 10:38:54;;;;;;;4.53;3.63;;;23.30;51.10;;;;;;5110707;28;20264;-62
2021/06/02 10:41:24;;;;;;;5.20;4.03;;;23.40;51.80;;;;;;5111911;28;20169;-62
2021/06/02 10:43:51;;;;;;;4.45;4.00;;;23.30;51.00;;;;;;5112473;28;20264;-62
2021/06/02 10:46:19;;;;;;;4.85;4.00;;;23.40;51.00;;;;;;5110800;28;20542;-62
2021/06/02 10:48:46;;;;;;;4.00;3.70;;;23.40;51.00;;;;;;5094826;28;20173;-63
2021/06/02 10:51:33;;;;;;;4.85;3.97;;;23.40;51.00;;;;;;5112766;28;20208;-62
2021/06/02 10:54:11;;;;;;;5.60;3.63;;;23.40;51.00;;;;;;5112047;28;20564;-62
2021/06/02 10:56:38;;;;;;;4.03;3.30;;;23.40;50.90;;;;;;5112403;28;20649;-62
2021/06/02 10:59:27;;;;;;;4.60;3.60;;;23.40;50.90;;;;;;5115397;28;20235;-62
2021/06/02 11:02:23;;;;;;;4.13;3.70;;;23.40;50.80;;;;;;5115990;28;20161;-62
2021/06/02 11:04:54;;;;;;;4.43;3.95;;;23.40;50.90;;;;;;5116406;28;20189;-61
2021/06/02 11:07:21;;;;;;;4.32;3.92;;;23.50;50.80;;;;;;5115950;28;20168;-61
2021/06/02 11:10:00;;;;;;;3.75;3.45;;;23.50;50.80;;;;;;5116188;28;20169;-62
2021/06/02 11:12:25;;;;;;;4.50;3.28;;;23.50;50.70;;;;;;5115478;28;20247;-63
2021/06/02 11:14:52;;;;;;;4.18;3.78;;;23.50;50.60;;;;;;5113571;28;20643;-62
2021/06/02 11:17:18;;;;;;;3.53;3.22;;;23.50;50.50;;;;;;5116088;28;20247;-63
2021/06/02 11:19:54;;;;;;;5.28;3.60;;;23.50;50.60;;;;;;5115978;28;20177;-62
2021/06/02 11:22:26;;;;;;;4.88;3.53;;;23.50;50.50;;;;;;5115601;28;20229;-62
2021/06/02 11:24:52;;;;;;;4.65;3.72;;;23.50;50.50;;;;;;5115874;28;20184;-61
2021/06/02 11:27:18;;;;;;;3.95;3.55;;;23.50;50.50;;;;;;5115530;28;20218;-62
2021/06/02 11:29:52;;;;;;;5.78;3.75;;;23.60;50.60;;;;;;5115424;28;20177;-61
2021/06/02 11:32:24;;;;;;;3.75;3.28;;;23.50;50.60;;;;;;5116002;28;20670;-62
2021/06/02 11:34:51;;;;;;;7.10;4.10;;;23.50;50.60;;;;;;5119403;27;20209;-62
2021/06/02 11:37:19;;;;;;;3.42;3.08;;;23.60;50.60;;;;;;5136549;27;20180;-62
2021/06/02 11:39:46;;;;;;;3.65;3.35;;;23.50;50.60;;;;;;5136085;27;20169;-62
2021/06/02 11:42:29;;;;;;;4.78;3.72;;;23.50;50.60;;;;;;5134422;27;20183;-62
2021/06/02 11:44:58;;;;;;;4.40;3.20;;;23.60;50.60;;;;;;5136136;27;20172;-61
2021/06/02 11:47:23;;;;;;;3.58;3.28;;;23.60;50.60;;;;;;5136500;27;20192;-62
2021/06/02 11:49:49;;;;;;;3.45;3.20;;;23.60;51.20;;;;;;5135412;27;20169;-62
2021/06/02 11:52:16;;;;;;;4.00;3.38;;;23.60;50.60;;;;;;5136169;27;20295;-62
2021/06/02 11:54:49;;;;;;;3.75;3.45;;;23.60;50.30;;;;;;5135995;27;20196;-62
2021/06/02 11:57:34;;;;;;;3.42;3.10;;;23.60;50.00;;;;;;5135424;27;20190;-62
2021/06/02 12:00:02;;;;;;;3.60;3.22;;;23.60;49.70;;;;;;5136136;27;20566;-62
2021/06/02 12:02:28;;;;;;;3.28;2.97;;;23.60;49.70;;;;;;5135583;27;20190;-62
2021/06/02 12:04:53;;;;;;;3.38;3.08;;;23.60;49.50;;;;;;5135387;27;20172;-62
2021/06/02 12:07:23;;;;;;;4.05;3.45;;;23.60;49.50;;;;;;5134643;27;20226;-62
2021/06/02 12:09:56;;;;;;;4.22;3.05;;;23.60;49.40;;;;;;5134631;27;20172;-62
2021/06/02 12:12:22;;;;;;;3.30;3.00;;;23.60;50.10;;;;;;5135453;27;20250;-62
2021/06/02 12:14:55;;;;;;;3.03;2.83;;;23.60;49.50;;;;;;5135531;27;20184;-62
2021/06/02 12:17:27;;;;;;;3.42;3.13;;;23.60;49.50;;;;;;5134923;27;20188;-62
2021/06/02 12:19:52;;;;;;;3.40;3.10;;;23.60;49.40;;;;;;5135172;27;20177;-61
2021/06/02 12:22:19;;;;;;;3.67;3.38;;;23.60;49.30;;;;;;5135624;27;20605;-62
2021/06/02 12:24:44;;;;;;;4.85;2.90;;;23.70;49.40;;;;;;5134751;27;20222;-61
2021/06/02 12:27:14;;;;;;;3.92;3.15;;;23.70;49.20;;;;;;5100406;27;20574;-61
2021/06/02 12:29:40;;;;;;;4.05;3.03;;;23.70;49.30;;;;;;5135159;27;20173;-62
2021/06/02 12:32:05;;;;;;;4.07;3.42;;;23.70;49.40;;;;;;5134498;27;20684;-62
2021/06/02 12:34:36;;;;;;;3.75;3.38;;;23.70;49.40;;;;;;5133146;27;20177;-62
2021/06/02 12:37:06;;;;;;;3.80;2.88;;;23.70;49.30;;;;;;5114816;28;20173;-62
2021/06/02 12:39:36;;;;;;;3.35;2.85;;;23.80;49.20;;;;;;5113901;28;20169;-62
2021/06/02 12:42:03;;;;;;;4.65;3.15;;;23.80;49.10;;;;;;5115036;28;20181;-62
2021/06/02 12:44:35;;;;;;;3.67;3.38;;;23.90;49.10;;;;;;5114614;28;20173;-62
2021/06/02 12:47:05;;;;;;;5.53;3.17;;;23.90;48.90;;;;;;5113825;28;20177;-62
2021/06/02 12:49:31;;;;;;;4.32;2.88;;;23.90;48.80;;;;;;5114446;28;20193;-62
2021/06/02 12:51:57;;;;;;;3.85;3.05;;;24.00;48.70;;;;;;5113702;28;20236;-62
2021/06/02 12:54:29;;;;;;;5.25;3.35;;;24.00;48.60;;;;;;5114531;28;20653;-62
2021/06/02 12:56:55;;;;;;;3.42;3.08;;;24.00;48.50;;;;;;5114234;28;20217;-63
2021/06/02 12:59:25;;;;;;;3.72;2.95;;;24.00;48.40;;;;;;5113523;28;20205;-62
2021/06/02 13:01:51;;;;;;;3.42;3.13;;;24.00;48.30;;;;;;5114053;28;20181;-62
2021/06/02 13:04:16;;;;;;;3.28;2.97;;;24.10;48.20;;;;;;5113346;28;20214;-62
2021/06/02 13:06:51;;;;;;;3.28;2.97;;;24.10;48.20;;;;;;5112176;28;20222;-63
2021/06/02 13:09:18;;;;;;;3.17;2.80;;;24.10;48.00;;;;;;5114285;28;20168;-63
2021/06/02 13:11:43;;;;;;;4.65;3.10;;;24.10;47.90;;;;;;5112286;28;20212;-63
2021/06/02 13:14:09;;;;;;;2.92;2.65;;;24.20;47.80;;;;;;5113300;28;20173;-63
2021/06/02 13:16:34;;;;;;;3.67;3.38;;;24.20;47.70;;;;;;5113730;28;20525;-62
2021/06/02 13:19:04;;;;;;;4.07;3.00;;;24.20;47.60;;;;;;5112836;28;20177;-62
2021/06/02 13:21:34;;;;;;;4.32;3.10;;;24.30;47.50;;;;;;5112582;28;20688;-62